createdAt,value
2018-02-05T00:01:35.675Z,14.05
2018-02-05T00:04:03.632Z,13.82
2018-02-05T00:06:31.526Z,14.32
2018-02-05T00:08:59.488Z,13.50
2018-02-05T00:11:27.393Z,13.00
2018-02-05T00:13:56.050Z,13.90
2018-02-05T00:16:23.927Z,13.50
2018-02-05T00:18:51.907Z,14.85
2018-02-05T00:21:20.644Z,14.93
2018-02-05T00:23:48.565Z,12.88
2018-02-05T00:26:17.264Z,13.98
2018-02-05T00:28:45.935Z,14.32
2018-02-05T00:31:14.703Z,12.77
2018-02-05T00:33:42.639Z,13.50
2018-02-05T00:36:10.554Z,14.68
2018-02-05T00:38:39.321Z,15.10
2018-02-05T00:41:07.210Z,13.00
2018-02-05T00:43:35.262Z,14.35
2018-02-05T00:46:03.154Z,14.07
2018-02-05T00:48:31.795Z,14.35
2018-02-05T00:50:59.693Z,15.40
2018-02-05T00:53:27.655Z,14.38
2018-02-05T00:55:55.577Z,14.45
2018-02-05T00:58:23.520Z,14.27
2018-02-05T01:00:51.436Z,14.50
2018-02-05T01:03:19.291Z,16.77
2018-02-05T01:05:47.270Z,14.57
2018-02-05T01:08:15.223Z,13.95
2018-02-05T01:10:43.133Z,15.10
2018-02-05T01:13:11.111Z,12.75
2018-02-05T01:15:39.794Z,14.32
2018-02-05T01:18:08.492Z,14.25
2018-02-05T01:20:37.154Z,14.55
2018-02-05T01:23:05.124Z,14.07
2018-02-05T01:25:33.025Z,14.55
2018-02-05T01:28:00.998Z,15.00
2018-02-05T01:30:28.905Z,15.20
2018-02-05T01:32:56.826Z,15.05
2018-02-05T01:35:24.741Z,14.63
2018-02-05T01:37:52.625Z,14.13
2018-02-05T01:40:20.592Z,15.02
2018-02-05T01:42:48.569Z,14.98
2018-02-05T01:45:16.504Z,13.55
2018-02-05T01:47:44.462Z,15.05
2018-02-05T01:50:12.427Z,14.80
2018-02-05T01:52:40.331Z,16.10
2018-02-05T01:55:08.205Z,15.00
2018-02-05T01:57:36.074Z,15.80
2018-02-05T02:00:04.047Z,15.35
2018-02-05T02:02:31.996Z,15.25
2018-02-05T02:04:59.882Z,14.43
2018-02-05T02:07:27.790Z,14.48
2018-02-05T02:09:55.759Z,14.13
2018-02-05T02:12:23.673Z,14.75
2018-02-05T02:14:51.543Z,14.75
2018-02-05T02:17:19.494Z,14.20
2018-02-05T02:19:47.464Z,13.65
2018-02-05T02:22:15.502Z,14.15
2018-02-05T02:24:43.454Z,14.95
2018-02-05T02:27:11.418Z,13.60
2018-02-05T02:29:39.342Z,14.95
2018-02-05T02:32:07.228Z,14.43
2018-02-05T02:34:35.168Z,14.20
2018-02-05T02:37:03.128Z,13.88
2018-02-05T02:39:31.026Z,15.07
2018-02-05T02:41:59.018Z,13.77
2018-02-05T02:44:27.697Z,12.65
2018-02-05T02:46:56.372Z,12.25
2018-02-05T02:49:24.362Z,14.15
2018-02-05T02:51:53.038Z,13.75
2018-02-05T02:54:21.695Z,13.48
2018-02-05T02:56:49.571Z,12.90
2018-02-05T02:59:17.483Z,13.50
2018-02-05T03:01:45.439Z,12.20
2018-02-05T03:04:13.332Z,12.55
2018-02-05T03:06:41.241Z,13.77
2018-02-05T03:09:09.156Z,14.00
2018-02-05T03:11:37.023Z,13.73
2018-02-05T03:14:04.925Z,13.02
2018-02-05T03:16:33.600Z,14.98
2018-02-05T03:19:01.551Z,15.25
2018-02-05T03:21:29.419Z,12.00
2018-02-05T03:23:57.558Z,12.80
2018-02-05T03:26:26.218Z,14.07
2018-02-05T03:28:54.125Z,14.30
2018-02-05T03:31:22.044Z,14.52
2018-02-05T03:33:49.972Z,12.77
2018-02-05T03:36:17.908Z,15.15
2018-02-05T03:38:46.640Z,14.50
2018-02-05T03:41:14.568Z,13.23
2018-02-05T03:43:43.246Z,15.23
2018-02-05T03:46:12.046Z,14.52
2018-02-05T03:48:40.732Z,14.45
2018-02-05T03:51:09.456Z,13.77
2018-02-05T03:53:37.378Z,14.32
2018-02-05T03:56:06.118Z,15.52
2018-02-05T03:58:34.088Z,13.65
2018-02-05T04:01:02.064Z,14.30
2018-02-05T04:03:29.965Z,14.23
2018-02-05T04:05:58.608Z,15.95
2018-02-05T04:08:26.565Z,15.10
2018-02-05T04:10:54.465Z,14.25
2018-02-05T04:13:22.370Z,14.85
2018-02-05T04:15:50.251Z,14.95
2018-02-05T04:18:18.174Z,14.32
2018-02-05T04:20:46.129Z,13.45
2018-02-05T04:23:14.080Z,15.20
2018-02-05T04:25:41.978Z,15.00
2018-02-05T04:28:09.862Z,14.35
2018-02-05T04:30:38.542Z,15.45
2018-02-05T04:33:07.269Z,14.80
2018-02-05T04:35:35.288Z,14.70
2018-02-05T04:38:03.251Z,13.35
2018-02-05T04:40:32.055Z,13.45
2018-02-05T04:43:00.793Z,14.70
2018-02-05T04:45:28.798Z,13.57
2018-02-05T04:47:56.722Z,14.50
2018-02-05T04:50:24.711Z,14.07
2018-02-05T04:52:52.611Z,12.63
2018-02-05T04:55:21.361Z,14.00
2018-02-05T04:57:49.344Z,14.10
2018-02-05T05:00:17.240Z,15.90
2018-02-05T05:02:45.941Z,13.30
2018-02-05T05:05:13.864Z,14.77
2018-02-05T05:07:41.772Z,13.90
2018-02-05T05:10:10.527Z,14.68
2018-02-05T05:12:38.406Z,14.35
2018-02-05T05:15:07.094Z,14.13
2018-02-05T05:17:35.815Z,13.95
2018-02-05T05:20:03.810Z,13.73
2018-02-05T05:22:31.688Z,14.43
2018-02-05T05:24:59.615Z,13.23
2018-02-05T05:27:27.603Z,15.02
2018-02-05T05:29:55.555Z,13.35
2018-02-05T05:32:23.493Z,14.45
2018-02-05T05:34:52.205Z,12.48
2018-02-05T05:37:20.179Z,13.75
2018-02-05T05:39:48.135Z,12.52
2018-02-05T05:42:16.007Z,14.02
2018-02-05T05:44:43.960Z,14.38
2018-02-05T05:47:12.598Z,13.88
2018-02-05T05:49:40.460Z,14.23
2018-02-05T05:52:09.087Z,14.32
2018-02-05T05:54:37.776Z,14.45
2018-02-05T05:57:06.432Z,16.73
2018-02-05T05:59:34.299Z,14.80
2018-02-05T06:02:02.198Z,13.52
2018-02-05T06:04:30.940Z,13.77
2018-02-05T06:06:58.854Z,14.50
2018-02-05T06:09:27.491Z,14.25
2018-02-05T06:11:55.357Z,14.77
2018-02-05T06:14:23.311Z,14.70
2018-02-05T06:16:51.258Z,15.45
2018-02-05T06:19:19.186Z,16.52
2018-02-05T06:21:47.050Z,13.77
2018-02-05T06:24:14.968Z,15.13
2018-02-05T06:26:42.904Z,14.23
2018-02-05T06:29:11.586Z,14.25
2018-02-05T06:31:40.256Z,13.80
2018-02-05T06:34:08.161Z,13.77
2018-02-05T06:36:36.053Z,13.35
2018-02-05T06:39:04.163Z,14.05
2018-02-05T06:41:32.038Z,15.07
2018-02-05T06:44:00.728Z,15.60
2018-02-05T06:46:29.383Z,16.52
2018-02-05T06:48:57.350Z,14.75
2018-02-05T06:51:37.116Z,13.85
2018-02-05T06:54:16.814Z,14.20
2018-02-05T06:56:45.662Z,14.23
2018-02-05T06:59:14.336Z,15.05
2018-02-05T07:01:42.243Z,13.73
2018-02-05T07:04:10.188Z,14.70
2018-02-05T07:06:38.907Z,15.80
2018-02-05T07:09:06.770Z,20.15
2018-02-05T07:11:34.786Z,18.33
2018-02-05T07:14:02.688Z,13.80
2018-02-05T07:16:30.559Z,19.17
2018-02-05T07:18:58.505Z,18.60
2018-02-05T07:21:27.175Z,17.45
2018-02-05T07:23:55.099Z,17.02
2018-02-05T07:26:23.119Z,19.12
2018-02-05T07:28:51.813Z,25.17
2018-02-05T07:31:20.537Z,17.77
2018-02-05T07:33:48.467Z,18.37
2018-02-05T07:36:17.192Z,17.33
2018-02-05T07:38:45.110Z,18.37
2018-02-05T07:41:13.032Z,16.50
2018-02-05T07:43:41.015Z,16.17
2018-02-05T07:46:08.949Z,17.23
2018-02-05T07:48:36.999Z,16.40
2018-02-05T07:51:05.636Z,17.12
2018-02-05T07:53:33.556Z,16.30
2018-02-05T07:56:02.225Z,16.25
2018-02-05T07:58:30.875Z,19.05
2018-02-05T08:00:58.766Z,15.63
2018-02-05T08:03:26.766Z,21.60
2018-02-05T08:05:55.401Z,13.88
2018-02-05T08:08:23.350Z,15.18
2018-02-05T08:10:51.308Z,14.15
2018-02-05T08:13:19.179Z,15.50
2018-02-05T08:15:47.055Z,17.33
2018-02-05T08:18:15.030Z,15.15
2018-02-05T08:20:42.936Z,19.90
2018-02-05T08:23:10.833Z,16.42
2018-02-05T08:25:38.700Z,18.27
2018-02-05T08:28:06.691Z,13.93
2018-02-05T08:30:34.749Z,18.50
2018-02-05T08:33:02.770Z,19.40
2018-02-05T08:35:30.934Z,16.45
2018-02-05T08:37:58.819Z,16.27
2018-02-05T08:40:26.783Z,22.50
2018-02-05T08:42:54.795Z,15.55
2018-02-05T08:45:22.726Z,17.75
2018-02-05T08:47:50.614Z,17.58
2018-02-05T08:50:18.512Z,16.30
2018-02-05T08:52:46.467Z,15.68
2018-02-05T08:55:14.375Z,15.90
2018-02-05T08:57:42.332Z,15.52
2018-02-05T09:00:10.250Z,16.23
2018-02-05T09:02:38.127Z,15.43
2018-02-05T09:05:06.042Z,16.00
2018-02-05T09:07:33.924Z,16.27
2018-02-05T09:10:01.844Z,14.65
2018-02-05T09:12:29.830Z,16.50
2018-02-05T09:14:57.714Z,16.65
2018-02-05T09:17:25.774Z,16.20
2018-02-05T09:19:53.662Z,17.65
2018-02-05T09:22:21.580Z,18.12
2018-02-05T09:24:49.538Z,18.10
2018-02-05T09:27:17.491Z,17.40
2018-02-05T09:29:46.177Z,17.48
2018-02-05T09:32:14.844Z,17.65
2018-02-05T09:34:42.735Z,16.60
2018-02-05T09:37:11.360Z,20.55
2018-02-05T09:39:39.274Z,21.50
2018-02-05T09:42:07.996Z,19.23
2018-02-05T09:44:35.856Z,19.92
2018-02-05T09:47:03.715Z,17.37
2018-02-05T09:49:31.708Z,17.10
2018-02-05T09:51:59.615Z,18.92
2018-02-05T09:54:28.344Z,17.45
2018-02-05T09:56:56.327Z,19.98
2018-02-05T09:59:24.228Z,18.65
2018-02-05T10:01:52.111Z,21.50
2018-02-05T10:04:20.759Z,19.00
2018-02-05T10:06:48.790Z,20.50
2018-02-05T10:09:16.779Z,20.10
2018-02-05T10:11:44.700Z,22.27
2018-02-05T10:14:12.686Z,20.58
2018-02-05T10:16:41.334Z,20.35
2018-02-05T10:19:09.332Z,21.02
2018-02-05T10:21:38.019Z,20.73
2018-02-05T10:24:06.663Z,21.50
2018-02-05T10:26:34.674Z,22.15
2018-02-05T10:29:03.456Z,23.55
2018-02-05T10:31:32.320Z,20.58
2018-02-05T10:34:00.267Z,22.30
2018-02-05T10:36:28.239Z,23.90
2018-02-05T10:38:56.172Z,21.37
2018-02-05T10:41:24.172Z,24.20
2018-02-05T10:43:52.058Z,23.77
2018-02-05T10:46:20.027Z,24.10
2018-02-05T10:48:47.976Z,22.42
2018-02-05T10:51:15.860Z,23.67
2018-02-05T10:53:43.968Z,20.93
2018-02-05T10:56:12.778Z,19.90
2018-02-05T10:58:40.675Z,17.85
2018-02-05T11:01:08.683Z,20.77
2018-02-05T11:03:37.423Z,18.97
2018-02-05T11:06:05.343Z,18.20
2018-02-05T11:08:33.997Z,18.17
2018-02-05T11:11:01.920Z,18.37
2018-02-05T11:13:29.867Z,17.87
2018-02-05T11:15:57.785Z,17.52
2018-02-05T11:18:25.783Z,18.00
2018-02-05T11:20:53.707Z,16.45
2018-02-05T11:23:21.630Z,17.93
2018-02-05T11:25:49.588Z,18.80
2018-02-05T11:28:17.494Z,18.63
2018-02-05T11:30:45.402Z,17.10
2018-02-05T11:33:13.300Z,16.47
2018-02-05T11:35:41.947Z,19.20
2018-02-05T11:38:09.854Z,15.20
2018-02-05T11:40:38.556Z,14.40
2018-02-05T11:43:07.301Z,13.40
2018-02-05T11:45:35.202Z,12.77
2018-02-05T11:48:15.707Z,10.63
2018-02-05T11:50:43.615Z,12.03
2018-02-05T11:53:24.749Z,10.40
2018-02-05T11:55:52.707Z,9.47
2018-02-05T11:58:20.649Z,10.30
2018-02-05T12:00:49.399Z,10.00
2018-02-05T12:03:17.355Z,9.33
2018-02-05T12:05:46.072Z,10.17
2018-02-05T12:08:13.985Z,9.70
2018-02-05T12:10:41.906Z,10.90
2018-02-05T12:13:09.794Z,9.97
2018-02-05T12:15:38.441Z,9.87
2018-02-05T12:18:06.364Z,9.23
2018-02-05T12:20:34.331Z,11.10
2018-02-05T12:23:02.302Z,10.13
2018-02-05T12:25:30.205Z,10.13
2018-02-05T12:27:58.117Z,9.07
2018-02-05T12:30:26.781Z,10.30
2018-02-05T12:32:54.698Z,10.73
2018-02-05T12:35:22.633Z,7.90
2018-02-05T12:37:51.320Z,9.13
2018-02-05T12:40:20.007Z,8.90
2018-02-05T12:42:48.686Z,11.23
2018-02-05T12:45:17.428Z,10.10
2018-02-05T12:47:45.333Z,9.37
2018-02-05T12:50:13.240Z,9.43
2018-02-05T12:52:41.119Z,9.73
2018-02-05T12:55:09.023Z,9.93
2018-02-05T12:57:37.088Z,9.90
2018-02-05T13:00:06.965Z,10.93
2018-02-05T13:02:34.978Z,11.33
2018-02-05T13:05:03.687Z,10.10
2018-02-05T13:07:31.682Z,9.97
2018-02-05T13:09:59.589Z,9.73
2018-02-05T13:12:27.487Z,10.30
2018-02-05T13:14:56.151Z,11.13
2018-02-05T13:17:24.067Z,10.70
2018-02-05T13:19:51.960Z,8.77
2018-02-05T13:22:19.877Z,8.87
2018-02-05T13:24:48.525Z,9.63
2018-02-05T13:27:16.395Z,10.00
2018-02-05T13:29:44.264Z,10.50
2018-02-05T13:32:12.191Z,10.13
2018-02-05T13:34:40.096Z,11.17
2018-02-05T13:37:08.027Z,10.90
2018-02-05T13:39:36.007Z,9.40
2018-02-05T13:42:03.923Z,9.03
2018-02-05T13:44:31.812Z,9.73
2018-02-05T13:46:59.794Z,11.40
2018-02-05T13:49:27.827Z,10.80
2018-02-05T13:51:55.810Z,11.97
2018-02-05T13:54:24.610Z,11.53
2018-02-05T13:56:52.495Z,10.87
2018-02-05T13:59:20.419Z,11.43
2018-02-05T14:01:49.163Z,11.37
2018-02-05T14:04:17.071Z,11.80
2018-02-05T14:06:45.798Z,11.97
2018-02-05T14:09:13.691Z,12.53
2018-02-05T14:11:41.672Z,11.70
2018-02-05T14:14:09.571Z,11.80
2018-02-05T14:16:38.311Z,10.80
2018-02-05T14:19:09.154Z,12.07
2018-02-05T14:21:37.152Z,11.20
2018-02-05T14:24:05.087Z,12.57
2018-02-05T14:26:32.999Z,11.43
2018-02-05T14:29:01.759Z,11.57
2018-02-05T14:31:29.723Z,10.80
2018-02-05T14:33:57.683Z,12.03
2018-02-05T14:36:25.574Z,12.20
2018-02-05T14:38:53.562Z,11.20
2018-02-05T14:41:22.196Z,11.63
2018-02-05T14:43:50.180Z,11.93
2018-02-05T14:46:18.242Z,11.43
2018-02-05T14:48:46.206Z,11.67
2018-02-05T14:51:14.108Z,11.13
2018-02-05T14:53:42.023Z,10.33
2018-02-05T14:56:09.954Z,9.70
2018-02-05T14:58:38.598Z,9.60
2018-02-05T15:01:06.549Z,9.98
2018-02-05T15:03:34.536Z,10.65
2018-02-05T15:06:02.496Z,10.32
2018-02-05T15:08:30.433Z,10.85
2018-02-05T15:10:58.615Z,12.43
2018-02-05T15:13:26.571Z,12.13
2018-02-05T15:15:54.531Z,13.23
2018-02-05T15:18:22.508Z,12.25
2018-02-05T15:20:50.409Z,12.60
2018-02-05T15:23:18.336Z,11.95
2018-02-05T15:25:46.227Z,12.40
2018-02-05T15:28:14.223Z,11.90
2018-02-05T15:30:42.123Z,11.55
2018-02-05T15:33:10.798Z,12.52
2018-02-05T15:35:38.783Z,11.97
2018-02-05T15:38:07.675Z,13.25
2018-02-05T15:40:35.680Z,11.27
2018-02-05T15:43:03.800Z,13.15
2018-02-05T15:45:33.228Z,12.68
2018-02-05T15:48:01.252Z,14.07
2018-02-05T15:50:29.173Z,13.82
2018-02-05T15:52:57.078Z,12.80
2018-02-05T15:55:24.964Z,14.70
2018-02-05T15:57:52.954Z,14.23
2018-02-05T16:00:21.620Z,14.52
2018-02-05T16:02:49.590Z,12.35
2018-02-05T16:05:17.520Z,12.90
2018-02-05T16:07:45.433Z,12.45
2018-02-05T16:10:13.343Z,13.85
2018-02-05T16:12:41.254Z,14.23
2018-02-05T16:15:10.115Z,13.75
2018-02-05T16:17:38.092Z,12.75
2018-02-05T16:20:05.981Z,13.73
2018-02-05T16:22:33.896Z,13.02
2018-02-05T16:25:01.893Z,13.13
2018-02-05T16:27:29.860Z,13.85
2018-02-05T16:29:57.802Z,14.50
2018-02-05T16:32:25.764Z,14.07
2018-02-05T16:34:53.711Z,14.23
2018-02-05T16:37:22.474Z,13.85
2018-02-05T16:39:50.361Z,12.68
2018-02-05T16:42:19.057Z,14.48
2018-02-05T16:44:47.803Z,14.60
2018-02-05T16:47:15.706Z,14.23
2018-02-05T16:49:44.363Z,13.97
2018-02-05T16:52:12.339Z,14.60
2018-02-05T16:54:40.346Z,14.40
2018-02-05T16:57:08.306Z,15.30
2018-02-05T16:59:37.115Z,14.55
2018-02-05T17:02:04.991Z,14.20
2018-02-05T17:04:33.018Z,13.05
2018-02-05T17:07:01.724Z,11.23
2018-02-05T17:09:29.609Z,11.73
2018-02-05T17:11:57.617Z,13.25
2018-02-05T17:14:25.514Z,22.52
2018-02-05T17:16:54.200Z,28.70
2018-02-05T17:19:22.862Z,30.10
2018-02-05T17:21:50.759Z,31.58
2018-02-05T17:24:19.431Z,36.40
2018-02-05T17:26:48.118Z,36.65
2018-02-05T17:29:16.787Z,38.10
2018-02-05T17:31:44.785Z,35.53
2018-02-05T17:34:13.432Z,36.20
2018-02-05T17:36:41.407Z,39.50
2018-02-05T17:39:09.371Z,34.60
2018-02-05T17:41:38.498Z,33.85
2018-02-05T17:44:07.228Z,38.00
2018-02-05T17:46:35.194Z,34.22
2018-02-05T17:49:03.109Z,41.05
2018-02-05T17:51:31.083Z,38.95
2018-02-05T17:53:59.762Z,36.03
2018-02-05T17:56:27.703Z,36.45
2018-02-05T17:58:55.598Z,34.85
2018-02-05T18:01:23.538Z,35.42
2018-02-05T18:03:51.499Z,34.05
2018-02-05T18:06:19.446Z,34.58
2018-02-05T18:08:47.332Z,37.08
2018-02-05T18:11:15.339Z,35.60
2018-02-05T18:13:43.257Z,28.08
2018-02-05T18:16:11.190Z,30.20
2018-02-05T18:18:39.923Z,28.73
2018-02-05T18:21:07.939Z,35.08
2018-02-05T18:23:36.614Z,33.92
2018-02-05T18:26:04.561Z,33.47
2018-02-05T18:28:32.559Z,41.47
2018-02-05T18:31:01.277Z,39.03
2018-02-05T18:33:29.264Z,37.63
2018-02-05T18:35:57.228Z,39.45
2018-02-05T18:38:25.223Z,35.95
2018-02-05T18:40:53.190Z,45.12
2018-02-05T18:43:21.881Z,36.28
2018-02-05T18:45:49.867Z,31.25
2018-02-05T18:48:18.065Z,33.83
2018-02-05T18:50:46.998Z,33.58
2018-02-05T18:53:15.178Z,30.00
2018-02-05T18:55:44.126Z,27.67
2018-02-05T18:58:12.509Z,29.42
2018-02-05T19:00:52.810Z,32.45
2018-02-05T19:03:21.011Z,25.37
2018-02-05T19:05:49.299Z,22.20
2018-02-05T19:08:18.520Z,22.27
2018-02-05T19:10:46.871Z,21.35
2018-02-05T19:13:15.817Z,18.10
2018-02-05T19:15:44.054Z,17.48
2018-02-05T19:18:12.293Z,16.90
2018-02-05T19:20:40.579Z,17.58
2018-02-05T19:23:08.909Z,16.52
2018-02-05T19:25:37.068Z,17.50
2018-02-05T19:28:05.318Z,17.70
2018-02-05T19:30:34.271Z,13.70
2018-02-05T19:33:02.472Z,13.88
2018-02-05T19:35:30.750Z,14.23
2018-02-05T19:37:58.924Z,15.77
2018-02-05T19:40:27.131Z,15.75
2018-02-05T19:42:55.309Z,13.98
2018-02-05T19:45:23.592Z,14.50
2018-02-05T19:47:51.771Z,15.63
2018-02-05T19:50:19.970Z,11.93
2018-02-05T19:52:48.193Z,12.25
2018-02-05T19:55:16.437Z,12.10
2018-02-05T19:57:44.762Z,12.40
2018-02-05T20:00:13.100Z,13.55
2018-02-05T20:02:42.066Z,12.80
2018-02-05T20:05:10.306Z,11.60
2018-02-05T20:07:38.502Z,12.68
2018-02-05T20:10:06.714Z,13.05
2018-02-05T20:12:34.939Z,12.23
2018-02-05T20:15:03.204Z,11.50
2018-02-05T20:17:31.421Z,13.10
2018-02-05T20:19:59.630Z,13.75
2018-02-05T20:22:28.621Z,14.25
2018-02-05T20:24:57.499Z,12.35
2018-02-05T20:27:26.410Z,13.75
2018-02-05T20:29:54.734Z,18.90
2018-02-05T20:32:22.919Z,21.85
2018-02-05T20:34:51.070Z,22.50
2018-02-05T20:37:19.208Z,24.70
2018-02-05T20:39:47.447Z,25.67
2018-02-05T20:42:15.625Z,26.17
2018-02-05T20:44:43.837Z,27.73
2018-02-05T20:47:11.994Z,26.15
2018-02-05T20:49:40.976Z,26.60
2018-02-05T20:52:10.027Z,29.90
2018-02-05T20:54:38.228Z,30.27
2018-02-05T20:57:06.334Z,30.83
2018-02-05T20:59:35.363Z,29.60
2018-02-05T21:02:03.401Z,31.55
2018-02-05T21:04:31.674Z,32.60
2018-02-05T21:06:59.955Z,34.25
2018-02-05T21:09:28.277Z,35.45
2018-02-05T21:11:56.525Z,32.80
2018-02-05T21:14:24.683Z,33.20
2018-02-05T21:16:52.983Z,35.70
2018-02-05T21:19:21.028Z,32.97
2018-02-05T21:21:48.963Z,33.42
2018-02-05T21:24:16.907Z,34.25
2018-02-05T21:26:44.894Z,35.55
2018-02-05T21:29:12.843Z,32.70
2018-02-05T21:31:41.519Z,32.17
2018-02-05T21:34:09.508Z,32.72
2018-02-05T21:36:37.441Z,37.40
2018-02-05T21:39:05.358Z,34.42
2018-02-05T21:41:33.267Z,35.38
2018-02-05T21:44:01.185Z,33.63
2018-02-05T21:46:29.089Z,34.08
2018-02-05T21:48:57.004Z,32.60
2018-02-05T21:51:24.875Z,33.88
2018-02-05T21:53:52.744Z,34.97
2018-02-05T21:56:20.665Z,34.20
2018-02-05T21:58:48.575Z,33.83
2018-02-05T22:01:16.478Z,33.50
2018-02-05T22:03:45.130Z,32.90
2018-02-05T22:06:13.041Z,33.45
2018-02-05T22:08:41.694Z,31.70
2018-02-05T22:11:09.568Z,33.80
2018-02-05T22:13:37.479Z,33.00
2018-02-05T22:16:05.356Z,34.95
2018-02-05T22:18:33.268Z,34.13
2018-02-05T22:21:01.157Z,34.50
2018-02-05T22:23:29.868Z,34.17
2018-02-05T22:25:57.786Z,39.63
2018-02-05T22:28:25.682Z,35.95
2018-02-05T22:30:53.567Z,37.17
2018-02-05T22:33:21.458Z,37.22
2018-02-05T22:35:49.407Z,37.80
2018-02-05T22:38:17.315Z,37.53
2018-02-05T22:40:45.207Z,37.40
2018-02-05T22:43:13.859Z,37.53
2018-02-05T22:45:41.742Z,37.42
2018-02-05T22:48:09.730Z,35.25
2018-02-05T22:50:38.403Z,34.92
2018-02-05T22:53:06.292Z,36.67
2018-02-05T22:55:34.183Z,37.28
2018-02-05T22:58:02.160Z,35.47
2018-02-05T23:00:30.050Z,36.03
2018-02-05T23:02:57.916Z,37.45
2018-02-05T23:05:25.816Z,34.97
2018-02-05T23:07:54.507Z,37.85
2018-02-05T23:10:22.396Z,37.42
2018-02-05T23:12:50.308Z,38.03
2018-02-05T23:15:18.175Z,41.10
2018-02-05T23:17:46.099Z,41.50
2018-02-05T23:20:14.079Z,40.25
2018-02-05T23:22:41.983Z,38.67
2018-02-05T23:25:09.848Z,38.42
2018-02-05T23:27:37.799Z,38.55
2018-02-05T23:30:05.733Z,40.60
2018-02-05T23:32:33.610Z,41.22
2018-02-05T23:35:01.515Z,41.92
2018-02-05T23:37:29.472Z,37.72
2018-02-05T23:39:57.383Z,41.60
2018-02-05T23:42:25.386Z,41.83
2018-02-05T23:44:53.347Z,40.25
2018-02-05T23:47:21.256Z,40.08
2018-02-05T23:49:49.160Z,39.90
2018-02-05T23:52:17.123Z,40.00
2018-02-05T23:54:45.763Z,41.20
2018-02-05T23:57:13.671Z,39.03
2018-02-05T23:59:42.311Z,37.17
